Fairbanks, AK

4:18 AM AKDT on July 07, 2015 (GMT -0800)
19th and Kennedy | | Change Station
CLOSE
Current Station
Personal Weather Station
Location: Fairbanks, AK
Elevation: 440 ft
Nearby Weather Stations
Active Advisory: Dense Smoke Advisory Active Notice: Record Report

Elev 440 ft 64.83 °N, 147.80 °W | Updated 8 minutes ago

Haze
Haze
72.7 °F
Feels Like 77 °F
N
2.2
Wind Variable Wind from NNW

Today
High -- | Low -- °F
--% Chance of Precip.
Yesterday
High -- | Low -- °F
Precip. -- in
3:26 AM 0:22 AM
Waning Gibbous, 65% visible
Pressure 29.76 in
Visibility 0.8 miles
Clouds Few 2100 ft
Mostly Cloudy 11000 ft
Heat Index 77 °F
Dew Point 53 °F
Humidity 50%
Rainfall 0.00 in
Snow Depth Not available.
UV 0 out of 12
Pollen Not available.
Air Quality Not available.
Flu Activity Not available.
METAR PAFB 071156Z AUTO 28008KT 3/4SM HZ FEW021 BKN110 24/09 A2976 RMK SLP076 T02440089 10283 20233 50006 VIA AUTODIAL

More Conditions Fewer Conditions

Pressure 29.76 in
Visibility 0.8 miles
Clouds Few 2100 ft
Mostly Cloudy 11000 ft
Heat Index 77 °F
Dew Point 53 °F
Humidity 50%
Rainfall 0.00 in
Snow Depth Not available.
UV 0 out of 12
Pollen Not available.
Air Quality Not available.
Flu Activity Not available.
METAR PAFB 071156Z AUTO 28008KT 3/4SM HZ FEW021 BKN110 24/09 A2976 RMK SLP076 T02440089 10283 20233 50006 VIA AUTODIAL

More Conditions Fewer Conditions

10-Day Weather Forecast

×

Almanac

Astronomy

Jul. 07, 2015 Rise Set
Actual Time
Civil Twilight
Nautical Twilight
Astronomical Twilight
Moon
Length of Visible Light
Length of Day
Tomorrow will be .
, % of the Moon is Illuminated

Today's Extremes

State Highs State Lows

Community

WunderPhotos

Upload Photos

1,835,782 photos uploaded!

WunderBlogs® & News

Nearby

Air Quality

  Air Quality AQ Index Pollutant
Not available.

Snow Depth

Station Depth Elevation

Earthquake Activity

City Distance Mag. Time & Date
Minimum magnitude displayed is 2.5.

Coastal Water Temperatures

Place Temperature

Stations

Nearby Weather Stations

Station Location Temp. Windchill Dew Point Humidity Wind Precip. Elev Updated Type
                   
Dense Smoke Advisory
Statement as of 3:57 AM AKDT on July 07, 2015

... Dense smoke advisory remains in effect until 1 PM akdt this
afternoon...

* visibility... less than one mile at times.

* Timing... conditions will improve in the afternoon as a weather
front moves through the area.

Precautionary/preparedness actions...

A dense smoke advisory means visibilities are limited to one mile
or less in wildfire smoke. If outdoors... prolonged physical
exertion should be reduced or stopped.